Time;durP1;ratioP1;P1;durP2;ratioP2;P2;SDS_P1;SDS_P2;PMS_P1;PMS_P2;Temp;Humidity;BMP_temperature;BMP_pressure;BME280_temperature;BME280_humidity;BME280_pressure;Samples;Min_cycle;Max_cycle;Signal;HPM_P1;HPM_P2
2021/08/14 00:02:08;;;;;;;2.13;1.45;;;;;;;23.34;55.01;102158.84;5016008;28;20037;-75
2021/08/14 00:04:33;;;;;;;2.17;1.30;;;;;;;23.32;54.88;102150.06;5032443;28;20033;-75
2021/08/14 00:06:59;;;;;;;2.72;1.55;;;;;;;23.33;55.15;102155.34;5015664;28;20099;-76
2021/08/14 00:09:24;;;;;;;3.70;2.03;;;;;;;23.28;55.18;102146.53;5015963;28;20388;-75
2021/08/14 00:11:49;;;;;;;1.73;1.10;;;;;;;23.31;55.16;102148.31;5032348;28;20476;-75
2021/08/14 00:14:15;;;;;;;2.33;1.48;;;;;;;23.29;55.05;102143.03;5015628;28;20400;-75
2021/08/14 00:16:40;;;;;;;3.55;1.40;;;;;;;23.33;55.01;102157.09;5015846;28;20160;-75
2021/08/14 00:19:05;;;;;;;2.95;1.70;;;;;;;23.29;54.99;102144.78;5033725;28;20083;-75
2021/08/14 00:21:31;;;;;;;3.67;1.77;;;;;;;23.30;55.18;102144.78;5035852;28;20067;-76
2021/08/14 00:23:56;;;;;;;2.78;1.80;;;;;;;23.27;55.21;102150.06;5038276;28;20021;-76
2021/08/14 00:26:22;;;;;;;2.67;1.40;;;;;;;23.33;54.91;102151.81;5053641;28;20034;-75
2021/08/14 00:28:47;;;;;;;2.83;1.50;;;;;;;23.31;55.18;102156.22;5035727;28;20036;-75
2021/08/14 00:31:12;;;;;;;2.88;1.55;;;;;;;23.33;55.10;102159.75;5002216;28;20475;-75
2021/08/14 00:33:38;;;;;;;2.20;1.25;;;;;;;23.33;54.96;102149.19;5015975;28;20533;-75
2021/08/14 00:36:04;;;;;;;3.25;1.80;;;;;;;23.31;55.00;102151.81;5033543;28;20452;-75
2021/08/14 00:38:29;;;;;;;2.63;1.95;;;;;;;23.31;54.97;102137.75;5037342;28;20995;-75
2021/08/14 00:40:55;;;;;;;1.85;1.08;;;;;;;23.32;55.03;102147.41;5036420;28;20391;-76
2021/08/14 00:43:21;;;;;;;2.70;1.65;;;;;;;23.29;55.13;102136.88;5036429;28;20033;-75
2021/08/14 00:45:47;;;;;;;2.60;1.25;;;;;;;23.28;55.05;102132.47;5019725;28;20021;-75
2021/08/14 00:48:12;;;;;;;2.20;1.30;;;;;;;23.32;54.93;102134.22;5035906;28;20041;-76
2021/08/14 00:50:38;;;;;;;3.90;1.88;;;;;;;23.30;55.01;102133.34;5036112;28;20038;-75
2021/08/14 00:53:05;;;;;;;2.88;1.13;;;;;;;23.29;55.14;102121.91;5035879;28;20037;-75
2021/08/14 00:55:31;;;;;;;3.30;1.80;;;;;;;23.25;55.07;102127.19;5036043;28;20036;-75
2021/08/14 00:57:57;;;;;;;3.03;1.60;;;;;;;23.30;55.06;102131.59;5035964;28;20038;-75
2021/08/14 01:00:23;;;;;;;2.78;1.20;;;;;;;23.31;55.15;102132.47;5035772;28;20634;-75
2021/08/14 01:02:49;;;;;;;2.10;1.38;;;;;;;23.28;55.03;102124.56;5037134;28;20025;-75
2021/08/14 01:05:16;;;;;;;3.05;1.65;;;;;;;23.28;55.08;102127.19;5035766;28;20040;-75
2021/08/14 01:07:42;;;;;;;1.75;1.25;;;;;;;23.29;55.30;102123.66;5036670;28;20072;-75
2021/08/14 01:10:08;;;;;;;3.22;1.98;;;;;;;23.29;55.10;102121.91;5035525;28;20033;-76
2021/08/14 01:12:33;;;;;;;3.33;1.67;;;;;;;23.32;55.00;102121.03;5035807;28;20454;-76
2021/08/14 01:14:59;;;;;;;3.05;1.52;;;;;;;23.31;55.32;102124.53;5036538;28;20049;-75
2021/08/14 01:17:24;;;;;;;3.35;1.60;;;;;;;23.31;55.17;102128.06;5018730;28;20545;-76
2021/08/14 01:19:50;;;;;;;1.92;1.30;;;;;;;23.28;55.06;102120.16;5036537;28;20117;-75
2021/08/14 01:22:16;;;;;;;2.38;1.38;;;;;;;23.31;55.15;102129.81;5035193;28;20468;-75
2021/08/14 01:24:43;;;;;;;3.03;1.38;;;;;;;23.29;55.08;102132.47;5035146;28;20057;-75
2021/08/14 01:27:09;;;;;;;2.28;1.60;;;;;;;23.32;54.99;102136.88;5036435;28;20037;-75
2021/08/14 01:29:35;;;;;;;1.80;1.20;;;;;;;23.30;55.19;102128.06;5035175;28;20436;-75
2021/08/14 01:32:01;;;;;;;3.38;1.33;;;;;;;23.31;54.94;102124.53;5036437;28;20112;-75
2021/08/14 01:34:27;;;;;;;3.13;1.50;;;;;;;23.30;55.12;102126.31;5036247;28;20567;-75
2021/08/14 01:36:53;;;;;;;3.10;1.42;;;;;;;23.30;55.23;102122.78;5036262;28;20091;-75
2021/08/14 01:39:18;;;;;;;2.67;1.60;;;;;;;23.29;55.05;102119.28;5036277;28;20456;-75
2021/08/14 01:41:58;;;;;;;1.67;1.00;;;;;;;23.30;55.13;102115.75;5036549;28;20387;-75
2021/08/14 01:44:24;;;;;;;1.70;0.98;;;;;;;23.27;55.02;102113.13;5036243;28;20424;-75
2021/08/14 01:46:49;;;;;;;3.00;1.35;;;;;;;23.27;55.08;102110.47;5018447;28;20069;-75
2021/08/14 01:49:14;;;;;;;2.53;1.30;;;;;;;23.29;55.23;102114.00;5035617;28;20037;-75
2021/08/14 01:51:40;;;;;;;2.55;1.42;;;;;;;23.27;55.13;102105.19;5018168;28;20491;-75
2021/08/14 01:54:05;;;;;;;2.78;1.58;;;;;;;23.30;55.29;102112.22;5018198;28;20120;-75
2021/08/14 01:56:32;;;;;;;2.92;1.70;;;;;;;23.30;55.19;102113.09;5035896;28;20040;-75
2021/08/14 01:58:58;;;;;;;2.47;1.48;;;;;;;23.26;55.40;102099.91;5034681;28;20404;-75
2021/08/14 02:01:23;;;;;;;1.90;1.30;;;;;;;23.28;55.31;102104.31;5035875;28;20033;-75
2021/08/14 02:03:49;;;;;;;4.13;1.48;;;;;;;23.30;55.14;102106.94;5034641;28;20029;-75
2021/08/14 02:06:19;;;;;;;3.58;1.63;;;;;;;23.29;55.26;102098.16;5034452;28;20021;-75
2021/08/14 02:08:44;;;;;;;1.90;1.40;;;;;;;23.28;55.12;102095.53;5035545;28;20033;-75
2021/08/14 02:11:18;;;;;;;2.85;1.63;;;;;;;23.30;55.18;102093.75;5034675;28;20036;-75
2021/08/14 02:13:44;;;;;;;;;;;;;;;23.30;55.20;102096.41;5034452;28;20048;-75
2021/08/14 02:16:10;;;;;;;1.75;1.27;;;;;;;23.29;55.23;102095.50;5034426;28;19913;-75
2021/08/14 02:18:35;;;;;;;2.20;1.27;;;;;;;23.29;55.29;102084.97;5034097;28;20038;-75
2021/08/14 02:21:02;;;;;;;4.00;1.95;;;;;;;23.26;55.19;102082.31;5035453;28;20029;-75
2021/08/14 02:23:27;;;;;;;4.28;2.60;;;;;;;23.28;55.11;102084.97;5017830;28;20365;-75
2021/08/14 02:25:53;;;;;;;2.55;1.33;;;;;;;23.25;55.18;102080.56;5034118;28;20056;-76
2021/08/14 02:28:18;;;;;;;3.58;1.48;;;;;;;23.27;55.17;102085.84;5034042;28;20033;-75
2021/08/14 02:30:43;;;;;;;2.28;1.25;;;;;;;23.29;55.36;102089.34;5034174;28;20391;-75
2021/08/14 02:33:09;;;;;;;2.67;1.30;;;;;;;23.28;55.24;102077.91;5035109;28;20025;-75
2021/08/14 02:35:34;;;;;;;2.47;1.85;;;;;;;23.28;55.18;102083.19;5035229;28;20460;-76
2021/08/14 02:38:00;;;;;;;2.03;1.27;;;;;;;23.28;55.37;102087.59;5017588;28;20033;-75
2021/08/14 02:40:25;;;;;;;2.35;1.50;;;;;;;23.26;55.16;102084.97;5033626;28;20029;-75
2021/08/14 02:42:51;;;;;;;3.55;2.05;;;;;;;23.26;55.38;102081.44;5033780;28;20037;-76
2021/08/14 02:45:16;;;;;;;2.78;2.00;;;;;;;23.29;55.19;102081.44;5017327;28;20052;-75
2021/08/14 02:47:41;;;;;;;3.03;1.77;;;;;;;23.28;55.33;102077.03;5033667;28;20029;-75
2021/08/14 02:50:07;;;;;;;2.50;1.38;;;;;;;23.24;55.22;102070.03;5034876;28;20025;-75
2021/08/14 02:52:33;;;;;;;2.67;1.75;;;;;;;23.26;55.02;102077.03;5017183;28;20037;-75
2021/08/14 02:54:58;;;;;;;2.88;1.75;;;;;;;23.25;55.24;102069.13;5033552;28;20491;-76
2021/08/14 02:57:24;;;;;;;2.42;1.35;;;;;;;23.27;55.14;102073.53;5033398;28;20022;-75
2021/08/14 02:59:49;;;;;;;1.85;1.30;;;;;;;23.29;55.22;102073.53;5033603;28;20025;-75
2021/08/14 03:02:14;;;;;;;3.17;2.17;;;;;;;23.28;55.22;102066.47;5033409;28;20535;-75
2021/08/14 03:04:40;;;;;;;2.30;1.50;;;;;;;23.28;55.28;102074.41;5016815;28;20361;-75
2021/08/14 03:07:05;;;;;;;2.50;1.42;;;;;;;23.24;55.22;102070.03;5034748;28;20035;-76
2021/08/14 03:09:30;;;;;;;2.58;1.42;;;;;;;23.25;55.32;102063.84;5033331;28;20037;-75
2021/08/14 03:11:56;;;;;;;2.85;1.70;;;;;;;23.27;55.06;102077.94;5016732;28;20454;-75
2021/08/14 03:14:21;;;;;;;3.08;1.60;;;;;;;23.24;55.33;102064.78;5032997;28;20125;-75
2021/08/14 03:16:46;;;;;;;3.05;1.52;;;;;;;23.26;55.28;102068.25;5016734;28;20033;-75
2021/08/14 03:19:12;;;;;;;2.70;1.20;;;;;;;23.22;55.28;102070.06;5016711;28;20033;-76
2021/08/14 03:21:37;;;;;;;3.10;1.60;;;;;;;23.24;55.45;102073.53;5034341;28;20029;-75
2021/08/14 03:24:03;;;;;;;3.60;1.40;;;;;;;23.26;55.28;102082.31;5032953;28;20107;-75
2021/08/14 03:26:28;;;;;;;1.48;1.20;;;;;;;23.24;55.23;102070.91;5032885;28;20029;-75
2021/08/14 03:28:54;;;;;;;1.92;1.48;;;;;;;23.24;55.23;102070.03;5032955;28;20033;-75
2021/08/14 03:31:21;;;;;;;2.28;1.30;;;;;;;23.25;55.17;102069.13;5034081;28;20033;-75
2021/08/14 03:33:47;;;;;;;2.05;1.27;;;;;;;23.27;55.24;102070.88;5032845;28;20049;-75
2021/08/14 03:36:13;;;;;;;1.90;1.23;;;;;;;23.26;55.16;102079.69;5016296;28;20142;-75
2021/08/14 03:38:38;;;;;;;4.20;1.63;;;;;;;23.26;55.22;102073.53;5033988;28;20029;-75
2021/08/14 03:41:05;;;;;;;2.90;1.75;;;;;;;23.23;55.17;102063.00;5032925;28;20530;-75
2021/08/14 03:43:30;;;;;;;2.10;1.38;;;;;;;23.22;54.99;102067.41;5034049;28;20068;-75
2021/08/14 03:45:56;;;;;;;2.30;1.35;;;;;;;23.21;55.23;102059.50;5032722;28;20029;-75
2021/08/14 03:48:21;;;;;;;2.90;1.85;;;;;;;23.22;55.30;102062.13;5015990;28;20037;-75
2021/08/14 03:50:47;;;;;;;1.70;1.38;;;;;;;23.24;55.32;102065.63;5016057;28;20052;-75
2021/08/14 03:53:12;;;;;;;2.40;1.50;;;;;;;23.23;55.18;102060.38;4999677;28;20030;-75
2021/08/14 03:55:37;;;;;;;2.45;1.30;;;;;;;23.21;55.28;102055.09;5016406;28;20026;-75
2021/08/14 03:58:03;;;;;;;3.20;1.45;;;;;;;23.24;55.39;102059.50;5000227;28;20467;-75
2021/08/14 04:00:28;;;;;;;2.40;1.48;;;;;;;23.24;55.32;102057.69;5032854;28;20361;-75
2021/08/14 04:02:54;;;;;;;2.20;1.60;;;;;;;23.24;55.30;102062.13;5016149;28;20033;-75
2021/08/14 04:05:19;;;;;;;2.47;1.45;;;;;;;23.21;55.29;102051.59;5033653;28;20033;-75
2021/08/14 04:07:44;;;;;;;2.85;1.50;;;;;;;23.23;55.42;102057.72;5032487;28;20391;-75
2021/08/14 04:10:10;;;;;;;2.83;1.48;;;;;;;23.20;55.18;102053.34;5033437;28;20040;-75
2021/08/14 04:12:35;;;;;;;2.20;1.40;;;;;;;23.23;55.06;102048.06;5033427;28;20041;-75
2021/08/14 04:15:05;;;;;;;3.78;1.88;;;;;;;23.21;55.38;102046.31;5031905;28;20045;-75
2021/08/14 04:17:32;;;;;;;3.60;1.90;;;;;;;23.22;55.16;102050.69;5032376;28;20052;-75
2021/08/14 04:19:57;;;;;;;3.05;1.77;;;;;;;23.20;55.05;102052.47;5033464;28;20033;-75
2021/08/14 04:22:22;;;;;;;3.17;1.50;;;;;;;23.20;55.26;102052.47;5033748;28;20372;-75
2021/08/14 04:24:48;;;;;;;2.38;1.33;;;;;;;23.21;55.29;102054.22;5015800;28;20579;-75
2021/08/14 04:27:13;;;;;;;3.30;2.20;;;;;;;23.21;55.33;102056.84;5015700;28;20075;-76
2021/08/14 04:29:38;;;;;;;3.70;1.58;;;;;;;23.20;55.17;102057.75;5015604;28;20056;-75
2021/08/14 04:32:04;;;;;;;3.05;1.52;;;;;;;23.22;55.13;102061.25;5015780;28;20415;-76
2021/08/14 04:34:30;;;;;;;2.13;1.20;;;;;;;23.22;55.40;102067.41;5031989;28;20064;-75
2021/08/14 04:36:55;;;;;;;1.75;1.10;;;;;;;23.20;55.10;102058.63;5033260;28;20056;-75
2021/08/14 04:39:20;;;;;;;2.60;1.60;;;;;;;23.11;55.28;102034.91;5031964;28;20029;-75
2021/08/14 04:41:46;;;;;;;1.55;1.20;;;;;;;23.19;55.13;102053.34;5033250;28;20029;-75
2021/08/14 04:44:11;;;;;;;2.20;1.42;;;;;;;23.22;55.44;102055.97;5016007;28;20028;-75
2021/08/14 04:46:36;;;;;;;1.88;1.40;;;;;;;23.17;55.37;102043.69;5036512;28;20487;-75
2021/08/14 04:49:02;;;;;;;1.92;1.45;;;;;;;23.19;55.31;102048.94;5036978;28;20503;-75
2021/08/14 04:51:27;;;;;;;2.22;1.60;;;;;;;23.19;55.21;102048.06;5032310;28;20087;-75
2021/08/14 04:53:53;;;;;;;3.28;2.05;;;;;;;23.21;55.04;102052.47;5015613;28;20034;-75
2021/08/14 04:56:18;;;;;;;2.75;1.35;;;;;;;23.22;55.34;102045.41;5031905;28;20038;-74
2021/08/14 04:58:43;;;;;;;1.45;0.90;;;;;;;23.21;55.19;102049.81;5015481;28;20472;-73
2021/08/14 05:01:09;;;;;;;3.28;1.52;;;;;;;23.22;55.04;102046.31;5031906;28;20637;-73
2021/08/14 05:03:34;;;;;;;2.58;1.30;;;;;;;23.22;55.13;102050.69;5031708;28;20028;-74
2021/08/14 05:06:00;;;;;;;2.10;1.58;;;;;;;23.20;55.14;102044.53;5031827;28;20033;-74
2021/08/14 05:08:25;;;;;;;1.88;1.23;;;;;;;23.21;55.22;102041.91;5031856;28;20361;-74
2021/08/14 05:10:50;;;;;;;4.53;2.22;;;;;;;23.19;55.27;102042.78;5033291;28;20029;-75
2021/08/14 05:13:16;;;;;;;2.28;1.60;;;;;;;23.19;55.32;102050.72;5031961;28;20549;-76
2021/08/14 05:15:42;;;;;;;2.40;1.38;;;;;;;23.23;55.11;102055.09;5032795;28;20049;-76
2021/08/14 05:18:07;;;;;;;2.80;1.55;;;;;;;23.23;55.06;102060.38;5015376;28;20056;-76
2021/08/14 05:20:32;;;;;;;3.17;1.88;;;;;;;23.21;55.16;102060.38;5033021;28;20036;-75
2021/08/14 05:22:58;;;;;;;2.25;1.38;;;;;;;23.22;55.37;102055.97;5032933;28;20189;-75
2021/08/14 05:25:23;;;;;;;3.45;1.73;;;;;;;23.21;55.17;102047.19;5018763;28;20064;-75
2021/08/14 05:27:49;;;;;;;2.28;1.40;;;;;;;23.23;55.11;102049.81;5036559;28;20471;-75
2021/08/14 05:30:14;;;;;;;1.83;1.33;;;;;;;23.23;55.14;102053.34;5036452;28;20030;-75
2021/08/14 05:32:40;;;;;;;3.17;1.30;;;;;;;23.24;55.29;102054.22;5036392;28;20029;-76
2021/08/14 05:35:06;;;;;;;4.13;2.47;;;;;;;23.20;55.35;102053.34;5018707;28;20037;-75
2021/08/14 05:37:31;;;;;;;2.33;1.23;;;;;;;23.21;55.23;102051.59;5035031;28;20064;-75
2021/08/14 05:39:56;;;;;;;4.20;1.55;;;;;;;23.19;55.19;102051.59;5035216;28;20111;-76
2021/08/14 05:42:22;;;;;;;2.28;1.48;;;;;;;23.20;55.39;102052.47;5034959;28;20510;-75
2021/08/14 05:44:47;;;;;;;2.13;1.20;;;;;;;23.23;55.21;102063.00;5036033;28;20018;-75
2021/08/14 05:47:12;;;;;;;3.78;1.70;;;;;;;23.24;55.09;102062.13;5034965;28;20052;-75
2021/08/14 05:49:38;;;;;;;3.65;1.42;;;;;;;23.25;55.16;102067.38;5036680;28;20037;-75
2021/08/14 05:52:05;;;;;;;2.72;1.65;;;;;;;23.26;55.00;102069.13;5035070;28;20034;-75
2021/08/14 05:54:32;;;;;;;4.55;1.65;;;;;;;23.26;54.91;102055.06;5035790;28;20033;-75
2021/08/14 05:56:58;;;;;;;2.20;1.27;;;;;;;23.31;54.94;102069.13;5034674;28;20032;-75
2021/08/14 05:59:23;;;;;;;3.38;1.70;;;;;;;23.30;54.87;102064.72;5035973;28;20037;-75
2021/08/14 06:01:48;;;;;;;3.05;1.83;;;;;;;23.32;54.91;102062.94;5034640;28;20052;-75
2021/08/14 06:04:14;;;;;;;2.50;1.30;;;;;;;23.38;55.05;102069.06;5018142;28;20029;-75
2021/08/14 06:06:45;;;;;;;3.63;1.80;;;;;;;23.41;54.54;102066.41;5034468;28;20083;-75
2021/08/14 06:09:12;;;;;;;1.70;1.20;;;;;;;23.45;54.69;102064.63;5035844;28;20033;-75
2021/08/14 06:11:38;;;;;;;2.33;1.48;;;;;;;23.46;54.64;102056.72;5035587;28;20148;-75
2021/08/14 06:14:03;;;;;;;2.38;1.50;;;;;;;23.52;54.73;102061.97;5034237;28;20042;-75
2021/08/14 06:16:29;;;;;;;2.47;1.45;;;;;;;23.56;54.39;102068.09;5034397;28;20030;-75
2021/08/14 06:18:55;;;;;;;3.15;1.60;;;;;;;23.56;54.22;102061.94;5034272;28;20030;-75
2021/08/14 06:21:20;;;;;;;1.67;1.23;;;;;;;23.58;54.57;102062.81;5035531;28;20376;-75
2021/08/14 06:23:45;;;;;;;5.30;2.45;;;;;;;23.58;54.58;102058.41;5035476;28;20067;-75
2021/08/14 06:26:11;;;;;;;3.17;1.65;;;;;;;23.59;54.69;102061.94;5035456;28;20030;-75
2021/08/14 06:28:37;;;;;;;2.50;1.50;;;;;;;23.56;54.71;102060.19;5034211;28;20357;-75
2021/08/14 06:31:02;;;;;;;3.22;2.30;;;;;;;23.58;54.47;102063.69;5034013;28;20036;-75
2021/08/14 06:33:28;;;;;;;1.90;1.30;;;;;;;23.61;54.77;102070.72;5034977;28;20083;-75
2021/08/14 06:35:53;;;;;;;3.13;1.90;;;;;;;23.56;54.52;102072.50;5034006;28;20030;-75
2021/08/14 06:38:19;;;;;;;2.05;1.20;;;;;;;23.55;54.84;102069.00;5035319;28;20101;-75
2021/08/14 06:40:44;;;;;;;2.80;1.55;;;;;;;23.60;54.91;102076.91;5035336;28;20108;-75
2021/08/14 06:43:09;;;;;;;2.45;1.58;;;;;;;23.60;54.75;102080.41;5017351;28;20029;-75
2021/08/14 06:45:35;;;;;;;2.00;1.27;;;;;;;23.63;54.71;102076.88;5033952;28;20376;-75
2021/08/14 06:48:00;;;;;;;2.30;1.25;;;;;;;23.59;54.66;102078.66;5017251;28;20039;-75
2021/08/14 06:50:25;;;;;;;2.40;1.30;;;;;;;23.57;54.74;102076.91;5033823;28;20063;-75
2021/08/14 06:52:51;;;;;;;3.20;1.27;;;;;;;23.55;54.89;102074.28;5034989;28;20036;-75
2021/08/14 06:55:16;;;;;;;2.17;1.23;;;;;;;23.52;54.86;102064.59;5033640;28;20038;-75
2021/08/14 06:57:42;;;;;;;3.00;1.38;;;;;;;23.53;54.93;102073.41;5034748;28;20483;-75
2021/08/14 07:00:07;;;;;;;2.00;1.40;;;;;;;23.56;55.12;102083.06;5033740;28;20033;-75
2021/08/14 07:02:33;;;;;;;2.50;1.55;;;;;;;23.58;54.62;102090.09;5016984;28;20160;-75
2021/08/14 07:04:58;;;;;;;2.70;1.30;;;;;;;23.54;54.78;102083.09;5016907;28;20052;-75
2021/08/14 07:07:24;;;;;;;2.85;1.38;;;;;;;23.62;54.74;102090.97;5033276;28;20055;-75
2021/08/14 07:09:49;;;;;;;2.50;1.45;;;;;;;23.65;54.46;102086.53;5033411;28;20029;-75
2021/08/14 07:12:14;;;;;;;2.80;1.55;;;;;;;23.69;54.46;102080.34;5016777;28;20037;-75
2021/08/14 07:14:41;;;;;;;1.85;1.15;;;;;;;23.67;54.59;102075.94;5016437;28;20500;-75
2021/08/14 07:17:06;;;;;;;2.30;1.30;;;;;;;23.78;54.43;102082.91;5034621;28;20028;-75
2021/08/14 07:19:32;;;;;;;2.20;1.23;;;;;;;23.80;54.33;102069.69;5033043;28;20026;-75
2021/08/14 07:21:57;;;;;;;2.00;1.35;;;;;;;23.77;54.36;102072.34;5034346;28;20107;-75
2021/08/14 07:24:23;;;;;;;2.88;1.40;;;;;;;23.77;54.42;102077.63;5016516;28;20379;-75
2021/08/14 07:26:48;;;;;;;2.90;1.50;;;;;;;23.77;54.33;102073.22;5032926;28;20033;-75
2021/08/14 07:29:13;;;;;;;3.03;1.50;;;;;;;23.76;54.38;102075.88;5032952;28;20479;-75
2021/08/14 07:31:39;;;;;;;2.70;1.80;;;;;;;23.73;54.71;102082.09;5016391;28;20029;-75
2021/08/14 07:34:05;;;;;;;3.30;1.40;;;;;;;23.67;54.69;102082.09;5033984;28;20460;-75
2021/08/14 07:36:30;;;;;;;3.05;2.10;;;;;;;23.66;54.81;102080.34;5032710;28;20044;-75
2021/08/14 07:38:55;;;;;;;2.10;1.30;;;;;;;23.63;54.64;102074.25;5032703;28;20140;-75
2021/08/14 07:41:21;;;;;;;1.90;1.38;;;;;;;23.61;54.91;102076.00;5034023;28;20083;-75
2021/08/14 07:43:46;;;;;;;2.25;1.35;;;;;;;23.60;55.11;102067.22;5033067;28;20112;-75
2021/08/14 07:46:11;;;;;;;2.40;1.30;;;;;;;23.61;55.04;102074.25;5015849;28;20064;-75
2021/08/14 07:48:37;;;;;;;2.75;1.75;;;;;;;23.58;54.95;102068.09;4999784;28;20391;-75
2021/08/14 07:51:02;;;;;;;2.45;1.45;;;;;;;23.58;54.96;102074.25;5033665;28;20472;-76
2021/08/14 07:53:28;;;;;;;3.63;2.25;;;;;;;23.58;55.06;102076.03;5033676;28;20060;-75
2021/08/14 07:55:55;;;;;;;2.17;1.50;;;;;;;23.57;55.13;102076.91;5032590;28;20049;-75
2021/08/14 07:58:20;;;;;;;2.03;1.10;;;;;;;23.55;54.78;102079.56;5032343;28;20033;-75
2021/08/14 08:00:46;;;;;;;3.47;1.65;;;;;;;23.57;54.89;102087.47;5032469;28;20037;-75
2021/08/14 08:03:11;;;;;;;2.35;1.17;;;;;;;23.57;55.13;102085.72;5033773;28;20033;-75
2021/08/14 08:05:38;;;;;;;3.13;1.38;;;;;;;23.57;55.15;102080.44;5032358;28;20033;-75
2021/08/14 08:08:04;;;;;;;3.45;1.70;;;;;;;23.55;55.20;102069.00;5032204;28;20037;-75
2021/08/14 08:10:30;;;;;;;2.45;1.40;;;;;;;23.63;54.80;102079.53;5033454;28;20040;-75
2021/08/14 08:12:56;;;;;;;2.53;1.30;;;;;;;23.62;54.96;102070.72;5032191;28;20468;-75
2021/08/14 08:15:21;;;;;;;3.65;1.83;;;;;;;23.67;54.70;102065.38;5032226;28;20056;-75
2021/08/14 08:17:47;;;;;;;2.88;1.30;;;;;;;23.65;54.62;102060.13;5032059;28;20040;-75
2021/08/14 08:20:14;;;;;;;2.30;1.60;;;;;;;23.65;54.89;102069.78;5033481;28;20109;-75
2021/08/14 08:22:40;;;;;;;1.75;1.25;;;;;;;23.64;54.59;102065.41;5032460;28;20037;-75
2021/08/14 08:25:07;;;;;;;1.98;1.00;;;;;;;23.63;55.23;102063.69;5015842;28;20036;-75
2021/08/14 08:27:35;;;;;;;2.60;1.40;;;;;;;23.64;54.88;102073.31;5033104;28;20442;-75
2021/08/14 08:30:00;;;;;;;2.92;1.33;;;;;;;23.66;54.62;102064.50;5034227;28;20028;-75
2021/08/14 08:32:26;;;;;;;2.58;1.75;;;;;;;23.71;54.79;102067.13;4999841;28;20030;-75
2021/08/14 08:34:51;;;;;;;3.25;1.50;;;;;;;23.73;54.55;102063.59;5015681;28;20025;-75
2021/08/14 08:37:16;;;;;;;2.13;1.60;;;;;;;23.74;54.40;102070.63;5032311;28;20045;-75
2021/08/14 08:39:42;;;;;;;2.70;1.83;;;;;;;23.70;54.46;102079.47;5032337;28;20034;-75
2021/08/14 08:42:08;;;;;;;2.45;1.50;;;;;;;23.72;54.52;102088.25;5015436;28;20029;-75
2021/08/14 08:44:35;;;;;;;2.33;1.40;;;;;;;23.70;54.77;102084.75;5033151;28;20040;-75
2021/08/14 08:47:00;;;;;;;1.85;1.08;;;;;;;23.66;54.62;102087.41;5031914;28;20091;-75
2021/08/14 08:49:26;;;;;;;2.15;1.35;;;;;;;23.69;54.85;102075.06;5033086;28;20430;-75
2021/08/14 08:51:53;;;;;;;2.08;1.38;;;;;;;23.74;54.64;102080.31;5032180;28;20029;-75
2021/08/14 08:54:19;;;;;;;2.08;1.30;;;;;;;23.73;54.38;102076.81;5031893;28;20030;-75
2021/08/14 08:56:45;;;;;;;2.10;1.60;;;;;;;23.71;54.46;102078.56;5031811;28;20049;-75
2021/08/14 08:59:13;;;;;;;4.10;1.63;;;;;;;23.70;54.55;102083.84;5034672;28;20052;-75
2021/08/14 09:01:40;;;;;;;2.58;1.13;;;;;;;23.74;54.76;102088.25;5035708;28;20472;-75
2021/08/14 09:04:25;;;;;;;3.78;1.60;;;;;;;23.77;54.63;102085.56;5035491;28;20499;-75
2021/08/14 09:06:51;;;;;;;2.17;1.40;;;;;;;23.80;54.40;102083.78;5035385;28;20025;-75
2021/08/14 09:09:16;;;;;;;3.25;1.55;;;;;;;23.75;54.37;102085.59;5036770;28;20082;-75
2021/08/14 09:11:55;;;;;;;2.00;1.52;;;;;;;23.79;54.17;102086.44;5002702;28;20030;-75
2021/08/14 09:14:20;;;;;;;2.90;1.40;;;;;;;23.78;54.23;102080.25;5035349;28;20041;-75
2021/08/14 09:17:03;;;;;;;1.85;1.27;;;;;;;23.75;54.56;102085.59;5035576;28;20487;-75
2021/08/14 09:19:28;;;;;;;2.72;1.42;;;;;;;23.71;54.56;102082.97;5036416;28;20090;-75
2021/08/14 09:21:54;;;;;;;2.85;1.83;;;;;;;23.77;54.37;102082.91;5035376;28;20116;-75
2021/08/14 09:24:36;;;;;;;2.58;1.20;;;;;;;23.73;54.55;102092.66;5018686;28;20040;-75
2021/08/14 09:27:03;;;;;;;2.78;1.30;;;;;;;23.74;54.51;102081.19;5036442;28;20045;-75
2021/08/14 09:29:36;;;;;;;1.90;1.35;;;;;;;23.76;54.58;102086.44;5035356;28;20475;-75
2021/08/14 09:32:05;;;;;;;3.33;1.60;;;;;;;23.76;54.55;102089.97;5036375;28;20025;-75
2021/08/14 09:34:32;;;;;;;3.42;1.88;;;;;;;23.81;54.48;102093.47;5034804;28;20033;-75
2021/08/14 09:37:05;;;;;;;2.33;1.33;;;;;;;23.74;54.45;102078.56;5034920;28;20033;-75
2021/08/14 09:39:33;;;;;;;3.08;1.35;;;;;;;23.78;54.47;102088.19;5036403;28;20029;-75
2021/08/14 09:42:08;;;;;;;2.30;1.38;;;;;;;23.74;54.59;102077.69;5034953;28;20135;-75
2021/08/14 09:44:37;;;;;;;2.42;1.45;;;;;;;23.79;54.36;102091.72;5036169;28;20021;-75
2021/08/14 09:47:11;;;;;;;2.97;1.90;;;;;;;23.74;54.43;102090.88;5035984;28;20102;-75
2021/08/14 09:49:54;;;;;;;2.70;1.60;;;;;;;23.69;54.61;102082.09;5034829;28;20040;-75
2021/08/14 09:52:21;;;;;;;;;;;;;;;23.77;54.54;102083.78;5036445;28;20026;-73
2021/08/14 09:54:46;;;;;;;3.58;1.70;;;;;;;23.76;54.44;102082.03;5018097;28;19917;-73
2021/08/14 09:57:19;;;;;;;3.20;1.83;;;;;;;23.78;54.18;102076.75;5034869;28;20044;-73
2021/08/14 09:59:46;;;;;;;2.08;1.45;;;;;;;23.81;54.46;102087.28;5035940;28;20025;-74
2021/08/14 10:02:15;;;;;;;2.85;1.63;;;;;;;23.78;54.38;102082.03;5035798;28;20037;-73
2021/08/14 10:04:41;;;;;;;3.38;2.20;;;;;;;23.76;54.49;102076.75;5035766;28;20025;-73
2021/08/14 10:07:08;;;;;;;1.65;1.33;;;;;;;23.79;54.50;102084.66;5035891;28;20029;-73
2021/08/14 10:09:34;;;;;;;3.22;1.75;;;;;;;23.82;54.36;102089.06;5034034;28;20025;-73
2021/08/14 10:12:00;;;;;;;2.95;1.48;;;;;;;23.81;54.18;102084.66;5035911;28;20032;-73
2021/08/14 10:14:26;;;;;;;3.03;1.58;;;;;;;23.80;54.53;102085.53;5017803;28;20052;-73
2021/08/14 10:16:53;;;;;;;3.85;1.73;;;;;;;23.80;54.50;102086.41;5034439;28;20033;-73
2021/08/14 10:19:19;;;;;;;5.70;1.63;;;;;;;23.79;54.42;102087.31;5035444;28;20037;-73
2021/08/14 10:21:44;;;;;;;2.72;1.92;;;;;;;23.78;54.62;102092.59;5035511;28;20056;-74
2021/08/14 10:24:11;;;;;;;2.30;1.27;;;;;;;23.74;54.45;102082.97;5034229;28;20550;-74
2021/08/14 10:26:37;;;;;;;3.95;1.65;;;;;;;23.78;54.55;102087.31;5018185;28;20148;-74
2021/08/14 10:29:02;;;;;;;1.70;1.17;;;;;;;23.76;54.56;102091.72;5035644;28;20057;-73
2021/08/14 10:31:30;;;;;;;2.08;1.73;;;;;;;23.76;54.37;102092.59;5034094;28;20033;-73
2021/08/14 10:34:19;;;;;;;3.70;2.22;;;;;;;23.76;54.25;102091.72;5035385;28;20021;-73
2021/08/14 10:36:46;;;;;;;3.65;2.15;;;;;;;23.75;54.64;102090.00;5028573;28;20107;-73
2021/08/14 10:39:18;;;;;;;1.65;1.13;;;;;;;23.74;54.40;102090.88;5033859;28;20491;-73
2021/08/14 10:41:44;;;;;;;3.72;1.65;;;;;;;23.75;54.47;102085.59;5033866;28;20438;-73
2021/08/14 10:44:10;;;;;;;3.05;1.30;;;;;;;23.73;54.52;102087.38;5017310;28;20025;-73
2021/08/14 10:46:50;;;;;;;2.33;1.30;;;;;;;23.76;54.59;102081.16;5034966;28;20147;-73
2021/08/14 10:49:31;;;;;;;2.58;1.48;;;;;;;23.73;54.52;102082.09;5033763;28;20048;-73
2021/08/14 10:52:03;;;;;;;2.13;1.35;;;;;;;23.71;54.39;102081.22;5033640;28;20025;-73
2021/08/14 10:54:28;;;;;;;2.08;1.20;;;;;;;23.72;54.62;102074.16;5033729;28;20030;-73
2021/08/14 10:56:58;;;;;;;2.58;1.40;;;;;;;23.72;54.56;102063.59;5033626;28;20472;-73
2021/08/14 10:59:37;;;;;;;4.65;1.88;;;;;;;23.77;54.23;102067.06;5034828;28;20446;-73
2021/08/14 11:02:14;;;;;;;6.78;2.60;;;;;;;23.67;53.75;102055.69;5033430;28;20473;-74
2021/08/14 11:04:53;;;;;;;17.88;3.83;;;;;;;23.61;53.93;102061.03;5034726;28;20391;-75
2021/08/14 11:07:18;;;;;;;10.18;3.72;;;;;;;23.64;53.03;102062.75;5033170;28;20029;-73
2021/08/14 11:09:45;;;;;;;14.35;5.45;;;;;;;23.66;53.43;102069.78;5033230;28;20129;-73
2021/08/14 11:12:10;;;;;;;11.43;3.92;;;;;;;23.67;53.68;102058.34;5033247;28;20404;-73
2021/08/14 11:14:40;;;;;;;6.18;2.58;;;;;;;23.70;53.49;102060.97;5034370;28;20041;-73
2021/08/14 11:17:07;;;;;;;8.52;2.80;;;;;;;23.72;53.39;102060.97;5033457;28;20069;-73
2021/08/14 11:19:43;;;;;;;9.05;3.15;;;;;;;23.71;53.70;102065.38;5016548;28;20048;-73
2021/08/14 11:22:21;;;;;;;6.75;3.00;;;;;;;23.71;53.86;102068.00;5033709;28;20044;-73
2021/08/14 11:24:48;;;;;;;6.15;2.92;;;;;;;23.73;53.63;102071.53;5034275;28;20486;-73